sensor_id;sensor_type;location;lat;lon;timestamp;temperature;humidity
75153;HTU21D;63734;45.218;36.708;2023-02-28T00:00:32;9.14;100.41
75153;HTU21D;63734;45.218;36.708;2023-02-28T00:02:58;9.17;100.14
75153;HTU21D;63734;45.218;36.708;2023-02-28T00:05:25;9.20;99.89
75153;HTU21D;63734;45.218;36.708;2023-02-28T00:07:52;9.25;99.43
75153;HTU21D;63734;45.218;36.708;2023-02-28T00:10:29;9.31;99.19
75153;HTU21D;63734;45.218;36.708;2023-02-28T00:13:00;9.27;98.86
75153;HTU21D;63734;45.218;36.708;2023-02-28T00:15:26;9.24;98.78
75153;HTU21D;63734;45.218;36.708;2023-02-28T00:17:53;9.23;98.73
75153;HTU21D;63734;45.218;36.708;2023-02-28T00:20:19;9.22;98.77
75153;HTU21D;63734;45.218;36.708;2023-02-28T00:22:48;9.23;98.73
75153;HTU21D;63734;45.218;36.708;2023-02-28T00:25:18;9.24;98.71
75153;HTU21D;63734;45.218;36.708;2023-02-28T00:27:44;9.26;98.63
75153;HTU21D;63734;45.218;36.708;2023-02-28T00:30:13;9.25;98.52
75153;HTU21D;63734;45.218;36.708;2023-02-28T00:32:39;9.24;98.35
75153;HTU21D;63734;45.218;36.708;2023-02-28T00:35:06;9.24;98.12
75153;HTU21D;63734;45.218;36.708;2023-02-28T00:37:33;9.25;98.14
75153;HTU21D;63734;45.218;36.708;2023-02-28T00:39:59;9.26;98.02
75153;HTU21D;63734;45.218;36.708;2023-02-28T00:42:27;9.27;97.89
75153;HTU21D;63734;45.218;36.708;2023-02-28T00:44:53;9.29;97.78
75153;HTU21D;63734;45.218;36.708;2023-02-28T00:47:19;9.26;97.77
75153;HTU21D;63734;45.218;36.708;2023-02-28T00:49:45;9.25;97.65
75153;HTU21D;63734;45.218;36.708;2023-02-28T00:52:11;9.22;97.61
75153;HTU21D;63734;45.218;36.708;2023-02-28T00:54:37;9.17;97.52
75153;HTU21D;63734;45.218;36.708;2023-02-28T00:57:03;9.14;97.52
75153;HTU21D;63734;45.218;36.708;2023-02-28T00:59:31;9.11;97.57
75153;HTU21D;63734;45.218;36.708;2023-02-28T01:01:57;9.08;97.60
75153;HTU21D;63734;45.218;36.708;2023-02-28T01:04:23;9.05;97.63
75153;HTU21D;63734;45.218;36.708;2023-02-28T01:06:48;9.03;97.71
75153;HTU21D;63734;45.218;36.708;2023-02-28T01:09:14;9.00;97.79
75153;HTU21D;63734;45.218;36.708;2023-02-28T01:11:41;9.00;97.86
75153;HTU21D;63734;45.218;36.708;2023-02-28T01:14:13;8.98;97.99
75153;HTU21D;63734;45.218;36.708;2023-02-28T01:16:39;8.95;98.08
75153;HTU21D;63734;45.218;36.708;2023-02-28T01:19:05;8.94;98.23
75153;HTU21D;63734;45.218;36.708;2023-02-28T01:21:31;8.91;98.35
75153;HTU21D;63734;45.218;36.708;2023-02-28T01:23:58;8.89;98.46
75153;HTU21D;63734;45.218;36.708;2023-02-28T01:26:24;8.87;98.61
75153;HTU21D;63734;45.218;36.708;2023-02-28T01:28:52;8.86;98.70
75153;HTU21D;63734;45.218;36.708;2023-02-28T01:31:19;8.83;98.78
75153;HTU21D;63734;45.218;36.708;2023-02-28T01:33:46;8.83;98.88
75153;HTU21D;63734;45.218;36.708;2023-02-28T01:36:15;8.83;98.98
75153;HTU21D;63734;45.218;36.708;2023-02-28T01:38:42;8.83;99.00
75153;HTU21D;63734;45.218;36.708;2023-02-28T01:41:15;8.82;99.00
75153;HTU21D;63734;45.218;36.708;2023-02-28T01:46:13;8.85;98.87
75153;HTU21D;63734;45.218;36.708;2023-02-28T01:49:04;8.88;98.81
75153;HTU21D;63734;45.218;36.708;2023-02-28T01:52:00;8.90;98.75
75153;HTU21D;63734;45.218;36.708;2023-02-28T01:54:34;8.89;98.58
75153;HTU21D;63734;45.218;36.708;2023-02-28T01:57:13;8.90;98.61
75153;HTU21D;63734;45.218;36.708;2023-02-28T01:59:49;8.93;98.52
75153;HTU21D;63734;45.218;36.708;2023-02-28T02:02:18;8.97;98.41
75153;HTU21D;63734;45.218;36.708;2023-02-28T02:05:07;8.96;98.32
75153;HTU21D;63734;45.218;36.708;2023-02-28T02:07:37;8.94;98.29
75153;HTU21D;63734;45.218;36.708;2023-02-28T02:10:39;8.92;98.25
75153;HTU21D;63734;45.218;36.708;2023-02-28T02:16:30;8.93;98.13
75153;HTU21D;63734;45.218;36.708;2023-02-28T02:30:03;8.96;98.00
75153;HTU21D;63734;45.218;36.708;2023-02-28T02:32:59;8.96;97.96
75153;HTU21D;63734;45.218;36.708;2023-02-28T02:40:57;9.00;97.87
75153;HTU21D;63734;45.218;36.708;2023-02-28T02:43:36;8.98;97.84
75153;HTU21D;63734;45.218;36.708;2023-02-28T02:46:10;8.98;97.83
75153;HTU21D;63734;45.218;36.708;2023-02-28T02:48:38;8.98;97.81
75153;HTU21D;63734;45.218;36.708;2023-02-28T02:51:15;8.97;97.78
75153;HTU21D;63734;45.218;36.708;2023-02-28T02:53:56;8.96;97.80
75153;HTU21D;63734;45.218;36.708;2023-02-28T02:56:27;8.95;97.79
75153;HTU21D;63734;45.218;36.708;2023-02-28T02:58:59;8.95;97.77
75153;HTU21D;63734;45.218;36.708;2023-02-28T03:01:29;8.94;97.78
75153;HTU21D;63734;45.218;36.708;2023-02-28T03:04:09;8.94;97.71
75153;HTU21D;63734;45.218;36.708;2023-02-28T03:06:37;8.93;97.74
75153;HTU21D;63734;45.218;36.708;2023-02-28T03:09:03;8.92;97.67
75153;HTU21D;63734;45.218;36.708;2023-02-28T03:11:31;8.90;97.67
75153;HTU21D;63734;45.218;36.708;2023-02-28T03:22:23;8.74;97.73
75153;HTU21D;63734;45.218;36.708;2023-02-28T03:25:40;8.72;97.69
75153;HTU21D;63734;45.218;36.708;2023-02-28T03:30:45;8.68;97.69
75153;HTU21D;63734;45.218;36.708;2023-02-28T03:33:17;8.68;97.68
75153;HTU21D;63734;45.218;36.708;2023-02-28T03:36:01;8.73;97.57
75153;HTU21D;63734;45.218;36.708;2023-02-28T03:41:06;8.76;97.43
75153;HTU21D;63734;45.218;36.708;2023-02-28T03:43:37;8.74;97.38
75153;HTU21D;63734;45.218;36.708;2023-02-28T03:46:09;8.71;97.35
75153;HTU21D;63734;45.218;36.708;2023-02-28T03:49:13;8.65;97.50
75153;HTU21D;63734;45.218;36.708;2023-02-28T03:51:42;8.62;97.52
75153;HTU21D;63734;45.218;36.708;2023-02-28T03:54:15;8.58;97.62
75153;HTU21D;63734;45.218;36.708;2023-02-28T03:56:59;8.55;97.77
75153;HTU21D;63734;45.218;36.708;2023-02-28T03:59:37;8.55;97.74
75153;HTU21D;63734;45.218;36.708;2023-02-28T04:02:05;8.57;97.78
75153;HTU21D;63734;45.218;36.708;2023-02-28T04:04:31;8.56;97.78
75153;HTU21D;63734;45.218;36.708;2023-02-28T04:07:06;8.58;97.81
75153;HTU21D;63734;45.218;36.708;2023-02-28T04:09:32;8.57;97.78
75153;HTU21D;63734;45.218;36.708;2023-02-28T04:11:58;8.57;97.71
75153;HTU21D;63734;45.218;36.708;2023-02-28T04:14:25;8.55;97.66
75153;HTU21D;63734;45.218;36.708;2023-02-28T04:16:51;8.52;97.58
75153;HTU21D;63734;45.218;36.708;2023-02-28T04:19:18;8.50;97.47
75153;HTU21D;63734;45.218;36.708;2023-02-28T04:21:47;8.45;97.52
75153;HTU21D;63734;45.218;36.708;2023-02-28T04:24:15;8.42;97.50
75153;HTU21D;63734;45.218;36.708;2023-02-28T04:26:44;8.37;97.48
75153;HTU21D;63734;45.218;36.708;2023-02-28T04:29:11;8.30;97.37
75153;HTU21D;63734;45.218;36.708;2023-02-28T04:31:38;8.16;97.16
75153;HTU21D;63734;45.218;36.708;2023-02-28T04:34:04;7.94;97.09
75153;HTU21D;63734;45.218;36.708;2023-02-28T04:36:30;7.76;97.27
75153;HTU21D;63734;45.218;36.708;2023-02-28T04:38:56;7.60;97.65
75153;HTU21D;63734;45.218;36.708;2023-02-28T04:41:22;7.48;97.97
75153;HTU21D;63734;45.218;36.708;2023-02-28T04:43:50;7.35;98.13
75153;HTU21D;63734;45.218;36.708;2023-02-28T04:46:16;7.19;98.30
75153;HTU21D;63734;45.218;36.708;2023-02-28T04:48:43;7.09;98.56
75153;HTU21D;63734;45.218;36.708;2023-02-28T04:51:12;6.96;98.75
75153;HTU21D;63734;45.218;36.708;2023-02-28T04:53:39;6.89;99.00
75153;HTU21D;63734;45.218;36.708;2023-02-28T04:56:07;6.79;99.16
75153;HTU21D;63734;45.218;36.708;2023-02-28T04:58:33;6.69;99.47
75153;HTU21D;63734;45.218;36.708;2023-02-28T05:01:04;6.61;99.76
75153;HTU21D;63734;45.218;36.708;2023-02-28T05:03:41;6.60;99.81
75153;HTU21D;63734;45.218;36.708;2023-02-28T05:06:08;6.57;100.00
75153;HTU21D;63734;45.218;36.708;2023-02-28T05:08:37;6.55;100.14
75153;HTU21D;63734;45.218;36.708;2023-02-28T05:11:03;6.50;100.40
75153;HTU21D;63734;45.218;36.708;2023-02-28T05:13:29;6.46;100.56
75153;HTU21D;63734;45.218;36.708;2023-02-28T05:15:56;6.48;100.68
75153;HTU21D;63734;45.218;36.708;2023-02-28T05:18:22;6.44;100.86
75153;HTU21D;63734;45.218;36.708;2023-02-28T05:20:48;6.43;101.07
75153;HTU21D;63734;45.218;36.708;2023-02-28T05:23:14;6.42;101.28
75153;HTU21D;63734;45.218;36.708;2023-02-28T05:25:41;6.39;101.31
75153;HTU21D;63734;45.218;36.708;2023-02-28T05:28:07;6.42;101.28
75153;HTU21D;63734;45.218;36.708;2023-02-28T05:30:33;6.42;101.34
75153;HTU21D;63734;45.218;36.708;2023-02-28T05:32:59;6.41;101.46
75153;HTU21D;63734;45.218;36.708;2023-02-28T05:35:26;6.38;101.52
75153;HTU21D;63734;45.218;36.708;2023-02-28T05:37:52;6.36;101.64
75153;HTU21D;63734;45.218;36.708;2023-02-28T05:40:18;6.35;101.66
75153;HTU21D;63734;45.218;36.708;2023-02-28T05:42:46;6.34;101.70
75153;HTU21D;63734;45.218;36.708;2023-02-28T05:45:12;6.40;101.64
75153;HTU21D;63734;45.218;36.708;2023-02-28T05:47:38;6.49;101.47
75153;HTU21D;63734;45.218;36.708;2023-02-28T05:50:05;6.54;101.38
75153;HTU21D;63734;45.218;36.708;2023-02-28T05:52:31;6.59;101.39
75153;HTU21D;63734;45.218;36.708;2023-02-28T05:54:57;6.65;101.32
75153;HTU21D;63734;45.218;36.708;2023-02-28T05:57:23;6.66;101.38
75153;HTU21D;63734;45.218;36.708;2023-02-28T05:59:49;6.69;101.33
75153;HTU21D;63734;45.218;36.708;2023-02-28T06:02:17;6.75;101.19
75153;HTU21D;63734;45.218;36.708;2023-02-28T06:04:43;6.86;100.92
75153;HTU21D;63734;45.218;36.708;2023-02-28T06:07:10;6.94;100.71
75153;HTU21D;63734;45.218;36.708;2023-02-28T06:09:37;6.98;100.61
75153;HTU21D;63734;45.218;36.708;2023-02-28T06:12:04;7.01;100.56
75153;HTU21D;63734;45.218;36.708;2023-02-28T06:14:32;7.00;100.61
75153;HTU21D;63734;45.218;36.708;2023-02-28T06:16:59;7.02;100.64
75153;HTU21D;63734;45.218;36.708;2023-02-28T06:19:26;7.04;100.61
75153;HTU21D;63734;45.218;36.708;2023-02-28T06:21:53;7.09;100.61
75153;HTU21D;63734;45.218;36.708;2023-02-28T06:24:20;7.08;100.60
75153;HTU21D;63734;45.218;36.708;2023-02-28T06:26:47;7.10;100.60
75153;HTU21D;63734;45.218;36.708;2023-02-28T06:29:13;7.11;100.63
75153;HTU21D;63734;45.218;36.708;2023-02-28T06:31:43;7.11;100.61
75153;HTU21D;63734;45.218;36.708;2023-02-28T06:34:10;7.10;100.63
75153;HTU21D;63734;45.218;36.708;2023-02-28T06:36:39;7.14;100.58
75153;HTU21D;63734;45.218;36.708;2023-02-28T06:39:06;7.17;100.58
75153;HTU21D;63734;45.218;36.708;2023-02-28T06:41:32;7.20;100.55
75153;HTU21D;63734;45.218;36.708;2023-02-28T06:44:05;7.25;100.47
75153;HTU21D;63734;45.218;36.708;2023-02-28T06:46:31;7.26;100.39
75153;HTU21D;63734;45.218;36.708;2023-02-28T06:48:57;7.24;100.45
75153;HTU21D;63734;45.218;36.708;2023-02-28T06:51:23;7.17;100.64
75153;HTU21D;63734;45.218;36.708;2023-02-28T06:53:50;7.15;100.85
75153;HTU21D;63734;45.218;36.708;2023-02-28T06:56:17;7.14;100.95
75153;HTU21D;63734;45.218;36.708;2023-02-28T06:58:50;7.12;100.99
75153;HTU21D;63734;45.218;36.708;2023-02-28T07:01:18;7.14;101.04
75153;HTU21D;63734;45.218;36.708;2023-02-28T07:03:45;7.19;100.94
75153;HTU21D;63734;45.218;36.708;2023-02-28T07:06:12;7.19;100.94
75153;HTU21D;63734;45.218;36.708;2023-02-28T07:08:38;7.16;100.99
75153;HTU21D;63734;45.218;36.708;2023-02-28T07:11:05;7.16;101.09
75153;HTU21D;63734;45.218;36.708;2023-02-28T07:13:31;7.14;101.14
75153;HTU21D;63734;45.218;36.708;2023-02-28T07:16:05;7.12;101.19
75153;HTU21D;63734;45.218;36.708;2023-02-28T07:18:32;7.12;101.27
75153;HTU21D;63734;45.218;36.708;2023-02-28T07:21:06;7.11;101.25
75153;HTU21D;63734;45.218;36.708;2023-02-28T07:23:33;7.11;101.32
75153;HTU21D;63734;45.218;36.708;2023-02-28T07:25:59;7.12;101.30
75153;HTU21D;63734;45.218;36.708;2023-02-28T07:28:25;7.14;101.15
75153;HTU21D;63734;45.218;36.708;2023-02-28T07:30:51;7.15;101.17
75153;HTU21D;63734;45.218;36.708;2023-02-28T07:33:17;7.16;101.14
75153;HTU21D;63734;45.218;36.708;2023-02-28T07:35:43;7.13;101.06
75153;HTU21D;63734;45.218;36.708;2023-02-28T07:38:09;7.07;101.13
75153;HTU21D;63734;45.218;36.708;2023-02-28T07:40:36;7.03;101.21
75153;HTU21D;63734;45.218;36.708;2023-02-28T07:43:03;7.00;101.28
75153;HTU21D;63734;45.218;36.708;2023-02-28T07:45:30;7.01;101.39
75153;HTU21D;63734;45.218;36.708;2023-02-28T07:47:57;7.01;101.45
75153;HTU21D;63734;45.218;36.708;2023-02-28T07:50:23;7.05;101.34
75153;HTU21D;63734;45.218;36.708;2023-02-28T07:52:49;7.01;101.25
75153;HTU21D;63734;45.218;36.708;2023-02-28T07:55:15;6.99;101.29
75153;HTU21D;63734;45.218;36.708;2023-02-28T07:57:42;6.98;101.30
75153;HTU21D;63734;45.218;36.708;2023-02-28T08:00:11;6.96;101.25
75153;HTU21D;63734;45.218;36.708;2023-02-28T08:02:39;6.89;101.37
75153;HTU21D;63734;45.218;36.708;2023-02-28T08:05:06;6.89;101.56
75153;HTU21D;63734;45.218;36.708;2023-02-28T08:07:32;6.88;101.64
75153;HTU21D;63734;45.218;36.708;2023-02-28T08:09:59;6.86;101.80
75153;HTU21D;63734;45.218;36.708;2023-02-28T08:12:25;6.87;101.90
75153;HTU21D;63734;45.218;36.708;2023-02-28T08:14:51;6.90;101.99
75153;HTU21D;63734;45.218;36.708;2023-02-28T08:17:17;6.91;101.96
75153;HTU21D;63734;45.218;36.708;2023-02-28T08:19:45;0.00;101.95
75153;HTU21D;63734;45.218;36.708;2023-02-28T08:22:11;6.99;101.80
75153;HTU21D;63734;45.218;36.708;2023-02-28T08:24:37;7.00;101.73
75153;HTU21D;63734;45.218;36.708;2023-02-28T08:27:04;7.05;101.65
75153;HTU21D;63734;45.218;36.708;2023-02-28T08:29:30;7.11;101.52
75153;HTU21D;63734;45.218;36.708;2023-02-28T08:31:56;7.18;101.37
75153;HTU21D;63734;45.218;36.708;2023-02-28T08:34:22;7.27;101.11
75153;HTU21D;63734;45.218;36.708;2023-02-28T08:36:48;7.33;100.95
75153;HTU21D;63734;45.218;36.708;2023-02-28T08:39:14;7.35;100.76
75153;HTU21D;63734;45.218;36.708;2023-02-28T08:41:42;7.40;100.68
75153;HTU21D;63734;45.218;36.708;2023-02-28T08:44:08;7.47;100.51
75153;HTU21D;63734;45.218;36.708;2023-02-28T08:46:34;7.42;100.22
75153;HTU21D;63734;45.218;36.708;2023-02-28T08:49:09;7.31;100.16
75153;HTU21D;63734;45.218;36.708;2023-02-28T08:51:39;7.20;100.16
75153;HTU21D;63734;45.218;36.708;2023-02-28T08:54:05;7.08;100.22
75153;HTU21D;63734;45.218;36.708;2023-02-28T08:56:37;6.98;100.40
75153;HTU21D;63734;45.218;36.708;2023-02-28T08:59:04;6.93;100.63
75153;HTU21D;63734;45.218;36.708;2023-02-28T09:01:30;6.84;100.67
75153;HTU21D;63734;45.218;36.708;2023-02-28T09:03:57;6.74;100.82
75153;HTU21D;63734;45.218;36.708;2023-02-28T09:06:26;6.66;100.99
75153;HTU21D;63734;45.218;36.708;2023-02-28T09:08:52;6.63;101.20
75153;HTU21D;63734;45.218;36.708;2023-02-28T09:11:19;6.56;101.18
75153;HTU21D;63734;45.218;36.708;2023-02-28T09:13:46;6.49;101.28
75153;HTU21D;63734;45.218;36.708;2023-02-28T09:16:14;6.40;101.43
75153;HTU21D;63734;45.218;36.708;2023-02-28T09:18:42;6.38;101.57
75153;HTU21D;63734;45.218;36.708;2023-02-28T09:21:10;6.38;101.74
75153;HTU21D;63734;45.218;36.708;2023-02-28T09:23:37;6.35;101.73
75153;HTU21D;63734;45.218;36.708;2023-02-28T09:26:06;6.34;101.81
75153;HTU21D;63734;45.218;36.708;2023-02-28T09:28:33;6.37;101.84
75153;HTU21D;63734;45.218;36.708;2023-02-28T09:30:59;6.43;101.80
75153;HTU21D;63734;45.218;36.708;2023-02-28T09:33:25;6.54;101.57
75153;HTU21D;63734;45.218;36.708;2023-02-28T09:35:58;6.56;101.34
75153;HTU21D;63734;45.218;36.708;2023-02-28T09:38:25;6.58;101.21
75153;HTU21D;63734;45.218;36.708;2023-02-28T09:40:53;6.52;100.96
75153;HTU21D;63734;45.218;36.708;2023-02-28T09:43:24;6.45;101.01
75153;HTU21D;63734;45.218;36.708;2023-02-28T09:46:02;6.38;100.95
75153;HTU21D;63734;45.218;36.708;2023-02-28T09:48:38;6.36;101.12
75153;HTU21D;63734;45.218;36.708;2023-02-28T09:53:37;6.35;101.22
75153;HTU21D;63734;45.218;36.708;2023-02-28T10:04:22;6.55;101.06
75153;HTU21D;63734;45.218;36.708;2023-02-28T10:06:55;6.63;100.83
75153;HTU21D;63734;45.218;36.708;2023-02-28T10:09:22;6.66;100.64
75153;HTU21D;63734;45.218;36.708;2023-02-28T10:11:52;6.66;100.55
75153;HTU21D;63734;45.218;36.708;2023-02-28T10:14:21;6.74;100.52
75153;HTU21D;63734;45.218;36.708;2023-02-28T10:16:58;6.82;100.39
75153;HTU21D;63734;45.218;36.708;2023-02-28T10:25:20;7.13;99.51
75153;HTU21D;63734;45.218;36.708;2023-02-28T10:27:46;7.11;98.83
75153;HTU21D;63734;45.218;36.708;2023-02-28T10:30:13;7.00;98.39
75153;HTU21D;63734;45.218;36.708;2023-02-28T10:32:50;6.93;98.44
75153;HTU21D;63734;45.218;36.708;2023-02-28T10:35:18;6.91;98.34
75153;HTU21D;63734;45.218;36.708;2023-02-28T10:37:48;6.91;98.46
75153;HTU21D;63734;45.218;36.708;2023-02-28T10:45:20;7.28;97.97
75153;HTU21D;63734;45.218;36.708;2023-02-28T10:48:26;7.32;97.52
75153;HTU21D;63734;45.218;36.708;2023-02-28T10:50:53;7.33;97.44
75153;HTU21D;63734;45.218;36.708;2023-02-28T10:56:16;7.07;96.10
75153;HTU21D;63734;45.218;36.708;2023-02-28T10:58:58;6.90;96.39
75153;HTU21D;63734;45.218;36.708;2023-02-28T11:01:34;6.83;96.74
75153;HTU21D;63734;45.218;36.708;2023-02-28T11:04:01;6.84;96.99
75153;HTU21D;63734;45.218;36.708;2023-02-28T11:06:32;6.85;96.69
75153;HTU21D;63734;45.218;36.708;2023-02-28T11:09:01;6.76;96.68
75153;HTU21D;63734;45.218;36.708;2023-02-28T11:11:30;6.74;96.83
75153;HTU21D;63734;45.218;36.708;2023-02-28T11:14:03;6.64;96.75
75153;HTU21D;63734;45.218;36.708;2023-02-28T11:16:34;6.54;96.85
75153;HTU21D;63734;45.218;36.708;2023-02-28T11:19:02;6.45;96.95
75153;HTU21D;63734;45.218;36.708;2023-02-28T11:21:34;6.36;96.87
75153;HTU21D;63734;45.218;36.708;2023-02-28T11:24:22;6.29;97.00
75153;HTU21D;63734;45.218;36.708;2023-02-28T11:26:50;6.16;96.94
75153;HTU21D;63734;45.218;36.708;2023-02-28T11:29:20;6.10;97.39
75153;HTU21D;63734;45.218;36.708;2023-02-28T11:32:12;6.02;97.49
75153;HTU21D;63734;45.218;36.708;2023-02-28T11:34:39;5.96;97.68
75153;HTU21D;63734;45.218;36.708;2023-02-28T11:37:11;5.93;97.90
75153;HTU21D;63734;45.218;36.708;2023-02-28T11:39:38;5.87;97.98
75153;HTU21D;63734;45.218;36.708;2023-02-28T11:55:41;5.85;97.92
75153;HTU21D;63734;45.218;36.708;2023-02-28T11:58:27;5.87;97.90
75153;HTU21D;63734;45.218;36.708;2023-02-28T12:06:38;5.85;97.27
75153;HTU21D;63734;45.218;36.708;2023-02-28T12:15:16;5.82;96.84
75153;HTU21D;63734;45.218;36.708;2023-02-28T12:18:12;5.84;97.04
75153;HTU21D;63734;45.218;36.708;2023-02-28T12:20:52;5.85;97.03
75153;HTU21D;63734;45.218;36.708;2023-02-28T12:29:04;5.84;96.84
75153;HTU21D;63734;45.218;36.708;2023-02-28T12:31:38;5.82;96.94
75153;HTU21D;63734;45.218;36.708;2023-02-28T12:34:19;5.84;97.06
75153;HTU21D;63734;45.218;36.708;2023-02-28T12:36:47;5.87;96.99
75153;HTU21D;63734;45.218;36.708;2023-02-28T12:39:25;5.93;97.15
75153;HTU21D;63734;45.218;36.708;2023-02-28T12:41:56;5.97;97.03
75153;HTU21D;63734;45.218;36.708;2023-02-28T12:44:46;5.97;96.90
75153;HTU21D;63734;45.218;36.708;2023-02-28T12:47:17;5.98;96.83
75153;HTU21D;63734;45.218;36.708;2023-02-28T12:50:02;5.94;96.75
75153;HTU21D;63734;45.218;36.708;2023-02-28T12:58:14;5.65;97.16
75153;HTU21D;63734;45.218;36.708;2023-02-28T13:06:43;5.46;97.90
75153;HTU21D;63734;45.218;36.708;2023-02-28T13:09:13;5.43;98.26
75153;HTU21D;63734;45.218;36.708;2023-02-28T13:14:20;5.41;98.40
75153;HTU21D;63734;45.218;36.708;2023-02-28T13:19:44;5.40;98.27
75153;HTU21D;63734;45.218;36.708;2023-02-28T13:29:32;5.41;98.32
75153;HTU21D;63734;45.218;36.708;2023-02-28T13:31:26;5.40;98.40
75153;HTU21D;63734;45.218;36.708;2023-02-28T13:36:27;5.26;98.49
75153;HTU21D;63734;45.218;36.708;2023-02-28T13:39:03;5.25;98.77
75153;HTU21D;63734;45.218;36.708;2023-02-28T13:44:14;5.21;98.88
75153;HTU21D;63734;45.218;36.708;2023-02-28T13:49:34;5.20;99.12
75153;HTU21D;63734;45.218;36.708;2023-02-28T13:55:02;5.13;99.26
75153;HTU21D;63734;45.218;36.708;2023-02-28T14:00:31;5.01;98.55
75153;HTU21D;63734;45.218;36.708;2023-02-28T14:03:31;4.97;98.69
75153;HTU21D;63734;45.218;36.708;2023-02-28T14:08:57;4.87;98.51
75153;HTU21D;63734;45.218;36.708;2023-02-28T14:11:32;4.89;98.50
75153;HTU21D;63734;45.218;36.708;2023-02-28T14:14:00;4.88;98.55
75153;HTU21D;63734;45.218;36.708;2023-02-28T14:16:40;4.87;98.72
75153;HTU21D;63734;45.218;36.708;2023-02-28T14:21:56;4.82;98.94
75153;HTU21D;63734;45.218;36.708;2023-02-28T14:24:42;4.79;98.90
75153;HTU21D;63734;45.218;36.708;2023-02-28T14:30:29;4.76;99.04
75153;HTU21D;63734;45.218;36.708;2023-02-28T14:38:57;4.68;99.02
75153;HTU21D;63734;45.218;36.708;2023-02-28T14:41:31;4.71;99.13
75153;HTU21D;63734;45.218;36.708;2023-02-28T14:43:59;4.68;98.93
75153;HTU21D;63734;45.218;36.708;2023-02-28T14:46:34;4.66;99.01
75153;HTU21D;63734;45.218;36.708;2023-02-28T14:49:01;4.65;98.77
75153;HTU21D;63734;45.218;36.708;2023-02-28T14:51:29;4.65;98.76
75153;HTU21D;63734;45.218;36.708;2023-02-28T14:53:58;4.68;98.74
75153;HTU21D;63734;45.218;36.708;2023-02-28T14:56:33;4.66;98.57
75153;HTU21D;63734;45.218;36.708;2023-02-28T14:59:01;4.64;98.37
75153;HTU21D;63734;45.218;36.708;2023-02-28T15:01:27;4.65;98.38
75153;HTU21D;63734;45.218;36.708;2023-02-28T15:03:59;4.65;98.19
75153;HTU21D;63734;45.218;36.708;2023-02-28T15:06:25;4.65;98.03
75153;HTU21D;63734;45.218;36.708;2023-02-28T15:09:14;4.63;97.91
75153;HTU21D;63734;45.218;36.708;2023-02-28T15:11:41;4.61;97.73
75153;HTU21D;63734;45.218;36.708;2023-02-28T15:14:15;4.58;97.57
75153;HTU21D;63734;45.218;36.708;2023-02-28T15:16:43;4.60;97.66
75153;HTU21D;63734;45.218;36.708;2023-02-28T15:21:48;4.63;97.67
75153;HTU21D;63734;45.218;36.708;2023-02-28T15:24:26;4.66;97.68
75153;HTU21D;63734;45.218;36.708;2023-02-28T15:26:57;4.72;97.67
75153;HTU21D;63734;45.218;36.708;2023-02-28T15:29:26;4.69;97.32
75153;HTU21D;63734;45.218;36.708;2023-02-28T15:32:04;4.66;96.99
75153;HTU21D;63734;45.218;36.708;2023-02-28T15:34:40;4.64;97.09
75153;HTU21D;63734;45.218;36.708;2023-02-28T15:42:40;4.67;97.15
75153;HTU21D;63734;45.218;36.708;2023-02-28T15:45:32;4.67;97.02
75153;HTU21D;63734;45.218;36.708;2023-02-28T15:48:00;4.65;97.04
75153;HTU21D;63734;45.218;36.708;2023-02-28T15:50:29;4.69;97.29
75153;HTU21D;63734;45.218;36.708;2023-02-28T15:52:56;4.69;97.20
75153;HTU21D;63734;45.218;36.708;2023-02-28T15:55:27;4.69;97.10
75153;HTU21D;63734;45.218;36.708;2023-02-28T15:57:56;4.71;96.90
75153;HTU21D;63734;45.218;36.708;2023-02-28T16:00:27;4.68;96.90
75153;HTU21D;63734;45.218;36.708;2023-02-28T16:02:53;4.69;96.81
75153;HTU21D;63734;45.218;36.708;2023-02-28T16:05:21;4.71;96.74
75153;HTU21D;63734;45.218;36.708;2023-02-28T16:08:01;4.71;96.55
75153;HTU21D;63734;45.218;36.708;2023-02-28T16:10:29;4.71;96.53
75153;HTU21D;63734;45.218;36.708;2023-02-28T16:12:56;4.76;96.58
75153;HTU21D;63734;45.218;36.708;2023-02-28T16:15:26;4.79;96.52
75153;HTU21D;63734;45.218;36.708;2023-02-28T16:17:54;4.82;96.55
75153;HTU21D;63734;45.218;36.708;2023-02-28T16:20:26;4.84;96.31
75153;HTU21D;63734;45.218;36.708;2023-02-28T16:22:53;4.82;95.99
75153;HTU21D;63734;45.218;36.708;2023-02-28T16:25:33;4.83;95.89
75153;HTU21D;63734;45.218;36.708;2023-02-28T16:28:00;4.87;95.94
75153;HTU21D;63734;45.218;36.708;2023-02-28T16:30:28;4.90;95.91
75153;HTU21D;63734;45.218;36.708;2023-02-28T16:32:57;4.87;95.65
75153;HTU21D;63734;45.218;36.708;2023-02-28T16:35:23;4.93;95.78
75153;HTU21D;63734;45.218;36.708;2023-02-28T16:37:53;4.89;95.68
75153;HTU21D;63734;45.218;36.708;2023-02-28T16:40:25;4.83;95.72
75153;HTU21D;63734;45.218;36.708;2023-02-28T16:42:55;4.76;95.67
75153;HTU21D;63734;45.218;36.708;2023-02-28T16:45:25;4.75;95.90
75153;HTU21D;63734;45.218;36.708;2023-02-28T16:47:52;4.76;95.97
75153;HTU21D;63734;45.218;36.708;2023-02-28T16:50:28;4.74;96.01
75153;HTU21D;63734;45.218;36.708;2023-02-28T16:52:55;4.77;96.07
75153;HTU21D;63734;45.218;36.708;2023-02-28T16:55:25;4.75;96.12
75153;HTU21D;63734;45.218;36.708;2023-02-28T16:57:59;4.73;96.26
75153;HTU21D;63734;45.218;36.708;2023-02-28T17:00:27;4.74;96.41
75153;HTU21D;63734;45.218;36.708;2023-02-28T17:02:53;4.75;96.46
75153;HTU21D;63734;45.218;36.708;2023-02-28T17:05:20;4.75;96.58
75153;HTU21D;63734;45.218;36.708;2023-02-28T17:07:47;4.77;96.68
75153;HTU21D;63734;45.218;36.708;2023-02-28T17:10:22;4.79;96.78
75153;HTU21D;63734;45.218;36.708;2023-02-28T17:12:49;4.80;96.80
75153;HTU21D;63734;45.218;36.708;2023-02-28T17:15:18;4.81;96.87
75153;HTU21D;63734;45.218;36.708;2023-02-28T17:17:46;4.82;96.88
75153;HTU21D;63734;45.218;36.708;2023-02-28T17:20:14;4.80;96.87
75153;HTU21D;63734;45.218;36.708;2023-02-28T17:22:41;4.80;96.84
75153;HTU21D;63734;45.218;36.708;2023-02-28T17:25:08;4.79;96.88
75153;HTU21D;63734;45.218;36.708;2023-02-28T17:27:38;4.77;96.92
75153;HTU21D;63734;45.218;36.708;2023-02-28T17:30:16;4.77;96.90
75153;HTU21D;63734;45.218;36.708;2023-02-28T17:32:44;4.76;96.94
75153;HTU21D;63734;45.218;36.708;2023-02-28T17:35:10;4.77;96.96
75153;HTU21D;63734;45.218;36.708;2023-02-28T17:37:36;4.77;97.01
75153;HTU21D;63734;45.218;36.708;2023-02-28T17:40:03;4.78;96.95
75153;HTU21D;63734;45.218;36.708;2023-02-28T17:42:30;4.81;97.02
75153;HTU21D;63734;45.218;36.708;2023-02-28T17:44:56;4.84;96.87
75153;HTU21D;63734;45.218;36.708;2023-02-28T17:47:24;4.84;96.71
75153;HTU21D;63734;45.218;36.708;2023-02-28T17:49:50;4.87;96.71
75153;HTU21D;63734;45.218;36.708;2023-02-28T17:52:17;4.89;96.71
75153;HTU21D;63734;45.218;36.708;2023-02-28T17:54:44;4.90;96.70
75153;HTU21D;63734;45.218;36.708;2023-02-28T17:57:16;4.91;96.55
75153;HTU21D;63734;45.218;36.708;2023-02-28T17:59:43;4.91;96.33